Time;durP1;ratioP1;P1;durP2;ratioP2;P2;SDS_P1;SDS_P2;PMS_P1;PMS_P2;Temp;Humidity;BMP_temperature;BMP_pressure;BME280_temperature;BME280_humidity;BME280_pressure;Samples;Min_cycle;Max_cycle;Signal;HPM_P1;HPM_P2
2021/08/08 00:00:20;;;;;;;5.22;2.75;;;;;;;-145.01;100.00;64805.59;4993479;28;20504;-61
2021/08/08 00:02:45;;;;;;;7.30;2.47;;;;;;;-145.01;100.00;64805.59;4993823;28;20041;-61
2021/08/08 00:05:11;;;;;;;7.80;2.45;;;;;;;-145.01;100.00;64805.59;4993389;28;20030;-61
2021/08/08 00:07:37;;;;;;;12.57;2.53;;;;;;;-145.01;100.00;64805.59;4993517;28;20054;-61
2021/08/08 00:10:06;;;;;;;7.57;2.55;;;;;;;-145.01;100.00;64805.59;4993257;28;20026;-61
2021/08/08 00:12:32;;;;;;;12.83;2.97;;;;;;;-145.01;100.00;64805.59;4993928;28;20152;-61
2021/08/08 00:14:57;;;;;;;5.30;2.70;;;;;;;-145.01;100.00;64805.59;4992454;28;20268;-61
2021/08/08 00:17:23;;;;;;;8.05;2.45;;;;;;;-145.01;100.00;64805.59;4993248;28;20370;-61
2021/08/08 00:19:48;;;;;;;7.15;3.00;;;;;;;-145.01;100.00;64805.59;4993664;28;20081;-61
2021/08/08 00:22:13;;;;;;;9.18;2.90;;;;;;;-145.01;100.00;64805.59;4993509;28;20365;-61
2021/08/08 00:24:39;;;;;;;8.95;3.08;;;;;;;-145.01;100.00;64805.59;4992244;28;20034;-61
2021/08/08 00:27:04;;;;;;;8.70;3.03;;;;;;;-145.01;100.00;64805.59;4993144;28;20046;-61
2021/08/08 00:29:30;;;;;;;14.73;3.25;;;;;;;-145.01;100.00;64805.59;4992588;28;20469;-61
2021/08/08 00:31:55;;;;;;;11.65;3.25;;;;;;;-145.01;100.00;64805.59;4991769;28;20046;-60
2021/08/08 00:34:20;;;;;;;10.07;3.17;;;;;;;-145.01;100.00;64805.59;4993572;28;20066;-61
2021/08/08 00:36:46;;;;;;;7.68;3.20;;;;;;;-145.01;100.00;64805.59;4992934;28;20034;-61
2021/08/08 00:39:14;;;;;;;8.05;2.95;;;;;;;-145.01;100.00;64805.59;4993615;28;20026;-61
2021/08/08 00:41:40;;;;;;;5.28;3.10;;;;;;;-145.01;100.00;64805.59;4993219;28;20043;-61
2021/08/08 00:44:05;;;;;;;5.88;3.20;;;;;;;-145.01;100.00;64805.59;4993699;28;20057;-61
2021/08/08 00:46:31;;;;;;;10.45;3.40;;;;;;;-145.01;100.00;64805.59;4992950;28;20524;-61
2021/08/08 00:48:56;;;;;;;10.07;2.78;;;;;;;-145.01;100.00;64805.59;4993455;28;20381;-61
2021/08/08 00:51:21;;;;;;;12.15;3.05;;;;;;;-145.01;100.00;64805.59;4991534;28;20105;-61
2021/08/08 00:53:47;;;;;;;6.57;2.63;;;;;;;-145.01;100.00;64805.59;4993583;28;20023;-61
2021/08/08 00:56:14;;;;;;;9.50;2.88;;;;;;;-145.01;100.00;64805.59;4993000;28;20388;-61
2021/08/08 00:58:40;;;;;;;9.95;2.90;;;;;;;-145.01;100.00;64805.59;4994025;28;20030;-61
2021/08/08 01:01:05;;;;;;;8.38;2.83;;;;;;;-145.01;100.00;64805.59;4995563;28;20404;-61
2021/08/08 01:03:31;;;;;;;14.05;3.38;;;;;;;-145.01;100.00;64805.59;4996099;28;20045;-61
2021/08/08 01:06:19;;;;;;;12.40;3.05;;;;;;;-145.01;100.00;64805.59;4995522;28;20389;-61
2021/08/08 01:08:52;;;;;;;6.35;2.83;;;;;;;-145.01;100.00;64805.59;4996990;28;20489;-61
2021/08/08 01:11:18;;;;;;;10.95;3.00;;;;;;;-145.01;100.00;64805.59;4995466;28;20065;-61
2021/08/08 01:13:43;;;;;;;8.32;2.88;;;;;;;-145.01;100.00;64805.59;4995808;28;20034;-61
2021/08/08 01:16:09;;;;;;;12.73;3.00;;;;;;;-145.01;100.00;64805.59;4995389;28;20030;-61
2021/08/08 01:18:34;;;;;;;7.85;3.17;;;;;;;-145.01;100.00;64805.59;4996916;28;20393;-61
2021/08/08 01:21:00;;;;;;;7.43;3.00;;;;;;;-145.01;100.00;64805.59;4996600;28;20477;-60
2021/08/08 01:23:25;;;;;;;8.73;3.08;;;;;;;-145.01;100.00;64805.59;4979394;28;20473;-60
2021/08/08 01:25:51;;;;;;;10.38;3.50;;;;;;;-145.01;100.00;64805.59;4979117;28;20508;-61
2021/08/08 01:28:16;;;;;;;8.93;3.00;;;;;;;-145.01;100.00;64805.59;4996750;28;20018;-61
2021/08/08 01:30:42;;;;;;;13.98;3.40;;;;;;;-145.01;100.00;64805.59;4978963;28;20549;-61
2021/08/08 01:33:08;;;;;;;10.68;3.67;;;;;;;-145.01;100.00;64805.59;4995383;28;20037;-60
2021/08/08 01:35:33;;;;;;;11.45;3.38;;;;;;;-145.01;100.00;64805.59;4994824;28;20117;-61
2021/08/08 01:37:59;;;;;;;6.43;3.10;;;;;;;-145.01;100.00;64805.59;4996705;28;20362;-60
2021/08/08 01:40:28;;;;;;;12.50;3.10;;;;;;;-145.01;100.00;64805.59;4996275;28;20500;-60
2021/08/08 01:42:54;;;;;;;10.53;3.10;;;;;;;-145.01;100.00;64805.59;4975429;28;20026;-60
2021/08/08 01:45:20;;;;;;;11.60;3.50;;;;;;;-145.01;100.00;64805.59;4991608;28;20271;-61
2021/08/08 01:47:48;;;;;;;10.63;3.22;;;;;;;-145.01;100.00;64805.59;4976031;28;20027;-60
2021/08/08 01:50:14;;;;;;;11.75;3.22;;;;;;;-145.01;100.00;64805.59;4975265;28;20022;-61
2021/08/08 01:52:39;;;;;;;8.25;3.47;;;;;;;-145.01;100.00;64805.59;4959829;28;20030;-60
2021/08/08 01:55:05;;;;;;;6.85;3.22;;;;;;;-145.01;100.00;64805.59;4975176;28;20433;-61
2021/08/08 01:57:33;;;;;;;12.38;3.70;;;;;;;-145.01;100.00;64805.59;4976831;28;20101;-60
2021/08/08 01:59:58;;;;;;;10.70;3.67;;;;;;;-145.01;100.00;64805.59;4976801;28;20027;-61
2021/08/08 02:02:23;;;;;;;15.23;3.50;;;;;;;-145.01;100.00;64805.59;4958942;28;20034;-60
2021/08/08 02:04:49;;;;;;;7.07;3.70;;;;;;;-145.01;100.00;64805.59;4976827;28;20027;-61
2021/08/08 02:07:17;;;;;;;14.80;3.65;;;;;;;-145.01;100.00;64805.59;4976042;28;20441;-61
2021/08/08 02:09:43;;;;;;;10.13;3.80;;;;;;;-145.01;100.00;64805.59;4975741;28;20393;-60
2021/08/08 02:12:09;;;;;;;8.43;3.45;;;;;;;-145.01;100.00;64805.59;4976010;28;20035;-60
2021/08/08 02:14:34;;;;;;;10.73;4.75;;;;;;;-145.01;100.00;64805.59;4976399;28;20027;-60
2021/08/08 02:17:00;;;;;;;9.40;3.45;;;;;;;-145.01;100.00;64805.59;4976271;28;20046;-60
2021/08/08 02:19:25;;;;;;;8.70;3.15;;;;;;;-145.01;100.00;64805.59;4976633;28;20034;-61
2021/08/08 02:21:51;;;;;;;7.20;3.28;;;;;;;-145.01;100.00;64805.59;4974687;28;20039;-61
2021/08/08 02:24:16;;;;;;;11.93;3.35;;;;;;;-145.01;100.00;64805.59;4976346;28;20110;-60
2021/08/08 02:26:42;;;;;;;15.45;3.47;;;;;;;-145.01;100.00;64805.59;4975948;28;20490;-60
2021/08/08 02:29:07;;;;;;;7.15;3.03;;;;;;;-145.01;100.00;64805.59;4976201;28;20019;-60
2021/08/08 02:31:37;;;;;;;18.05;3.38;;;;;;;-145.01;100.00;64805.59;4975890;28;20043;-61
2021/08/08 02:34:03;;;;;;;11.30;3.60;;;;;;;-145.01;100.00;64805.59;4975096;28;20027;-61
2021/08/08 02:36:28;;;;;;;18.25;3.95;;;;;;;-145.01;100.00;64805.59;4975869;28;20035;-60
2021/08/08 02:38:54;;;;;;;12.75;3.50;;;;;;;-145.01;100.00;64805.59;4976034;28;20038;-60
2021/08/08 02:41:19;;;;;;;11.25;3.33;;;;;;;-145.01;100.00;64805.59;4975733;28;20031;-61
2021/08/08 02:43:45;;;;;;;15.93;3.58;;;;;;;-145.01;100.00;64805.59;4975877;28;20031;-61
2021/08/08 02:46:10;;;;;;;12.75;3.20;;;;;;;-145.01;100.00;64805.59;4975591;28;20486;-60
2021/08/08 02:48:35;;;;;;;12.45;3.33;;;;;;;-145.01;100.00;64805.59;4975838;28;20082;-60
2021/08/08 02:51:01;;;;;;;8.35;3.10;;;;;;;-145.01;100.00;64805.59;4975415;28;20039;-60
2021/08/08 02:53:27;;;;;;;17.23;3.40;;;;;;;-145.01;100.00;64805.59;4974632;28;20154;-59
2021/08/08 02:55:52;;;;;;;10.60;3.55;;;;;;;-145.01;100.00;64805.59;4974196;28;20393;-62
2021/08/08 02:58:18;;;;;;;11.13;2.92;;;;;;;-145.01;100.00;64805.59;4975628;28;20033;-59
2021/08/08 03:00:43;;;;;;;18.40;3.47;;;;;;;-145.01;100.00;64805.59;4975212;28;20039;-61
2021/08/08 03:03:08;;;;;;;12.20;3.70;;;;;;;-145.01;100.00;64805.59;4975718;28;20034;-61
2021/08/08 03:05:34;;;;;;;8.52;3.20;;;;;;;-145.01;100.00;64805.59;4975420;28;20093;-59
2021/08/08 03:07:59;;;;;;;11.38;3.28;;;;;;;-145.01;100.00;64805.59;4975501;28;20046;-60
2021/08/08 03:10:25;;;;;;;8.50;3.40;;;;;;;-145.01;100.00;64805.59;4974909;28;20517;-61
2021/08/08 03:12:50;;;;;;;10.30;4.00;;;;;;;-145.01;100.00;64805.59;4975378;28;20030;-61
2021/08/08 03:15:16;;;;;;;12.10;3.67;;;;;;;-145.01;100.00;64805.59;4973785;28;20489;-61
2021/08/08 03:17:42;;;;;;;14.98;3.60;;;;;;;-145.01;100.00;64805.59;4975513;28;20026;-61
2021/08/08 03:20:08;;;;;;;11.77;3.65;;;;;;;-145.01;100.00;64805.59;4975010;28;20081;-62
2021/08/08 03:22:33;;;;;;;8.90;3.25;;;;;;;-145.01;100.00;64805.59;4975138;28;20110;-61
2021/08/08 03:24:59;;;;;;;12.60;3.33;;;;;;;-145.01;100.00;64805.59;4975290;28;20030;-61
2021/08/08 03:27:24;;;;;;;9.25;3.55;;;;;;;-145.01;100.00;64805.59;4974810;28;20041;-61
2021/08/08 03:29:49;;;;;;;7.68;3.35;;;;;;;-145.01;100.00;64805.59;4973775;28;20038;-61
2021/08/08 03:32:15;;;;;;;7.40;3.38;;;;;;;-145.01;100.00;64805.59;4974661;28;20057;-61
2021/08/08 03:34:40;;;;;;;13.63;3.17;;;;;;;-145.01;100.00;64805.59;4975118;28;20109;-61
2021/08/08 03:37:06;;;;;;;9.65;3.03;;;;;;;-145.01;100.00;64805.59;5005812;28;20034;-61
2021/08/08 03:39:31;;;;;;;6.78;3.20;;;;;;;-145.01;100.00;64805.59;4979326;28;20018;-61
2021/08/08 03:41:57;;;;;;;10.00;3.47;;;;;;;-145.01;100.00;64805.59;4993894;28;20034;-61
2021/08/08 03:44:22;;;;;;;12.32;3.85;;;;;;;-145.01;100.00;64805.59;4994145;28;20033;-61
2021/08/08 03:46:48;;;;;;;8.13;3.30;;;;;;;-145.01;100.00;64805.59;4993892;28;20041;-61
2021/08/08 03:49:14;;;;;;;10.63;4.03;;;;;;;-145.01;100.00;64805.59;4993080;28;20022;-59
2021/08/08 03:51:40;;;;;;;8.18;3.50;;;;;;;-145.01;100.00;64805.59;4993650;28;20069;-60
2021/08/08 03:54:05;;;;;;;10.13;3.67;;;;;;;-145.01;100.00;64805.59;4994135;28;20030;-60
2021/08/08 03:56:31;;;;;;;14.30;3.60;;;;;;;-145.01;100.00;64805.59;4993690;28;20034;-60
2021/08/08 03:58:56;;;;;;;8.15;3.80;;;;;;;-145.01;100.00;64805.59;4992650;28;20030;-60
2021/08/08 04:01:21;;;;;;;15.10;3.95;;;;;;;-145.01;100.00;64805.59;4993537;28;20061;-60
2021/08/08 04:03:47;;;;;;;9.18;3.55;;;;;;;-145.01;100.00;64805.59;4993854;28;20469;-60
2021/08/08 04:06:12;;;;;;;11.75;4.38;;;;;;;-145.01;100.00;64805.59;4993640;28;20042;-60
2021/08/08 04:08:38;;;;;;;9.30;3.65;;;;;;;-145.01;100.00;64805.59;4993585;28;20046;-60
2021/08/08 04:11:03;;;;;;;16.40;4.72;;;;;;;-145.01;100.00;64805.59;4992009;28;20042;-60
2021/08/08 04:13:28;;;;;;;10.63;3.50;;;;;;;-145.01;100.00;64805.59;4993809;28;20022;-60
2021/08/08 04:15:54;;;;;;;13.00;4.82;;;;;;;-145.01;100.00;64805.59;4993379;28;20026;-59
2021/08/08 04:18:19;;;;;;;10.05;4.00;;;;;;;-145.01;100.00;64805.59;4993975;28;20027;-60
2021/08/08 04:20:45;;;;;;;9.10;4.07;;;;;;;-145.01;100.00;64805.59;4993507;28;20402;-60
2021/08/08 04:23:10;;;;;;;9.60;3.80;;;;;;;-145.01;100.00;64805.59;4993794;28;20030;-62
2021/08/08 04:25:37;;;;;;;14.98;4.18;;;;;;;-145.01;100.00;64805.59;4993176;28;20137;-61
2021/08/08 04:28:04;;;;;;;9.55;4.00;;;;;;;-145.01;100.00;64805.59;4993561;28;20080;-61
2021/08/08 04:30:31;;;;;;;12.00;4.25;;;;;;;-145.01;100.00;64805.59;4993210;28;20031;-62
2021/08/08 04:32:57;;;;;;;10.15;4.15;;;;;;;-145.01;100.00;64805.59;4993185;28;20061;-61
2021/08/08 04:35:22;;;;;;;12.25;4.00;;;;;;;-145.01;100.00;64805.59;4993226;28;20385;-61
2021/08/08 04:37:47;;;;;;;7.60;3.95;;;;;;;-145.01;100.00;64805.59;4976308;28;20037;-61
2021/08/08 04:40:13;;;;;;;11.30;3.58;;;;;;;-145.01;100.00;64805.59;4991975;28;20026;-61
2021/08/08 04:42:39;;;;;;;13.70;3.80;;;;;;;-145.01;100.00;64805.59;4993494;28;20473;-61
2021/08/08 04:45:05;;;;;;;9.35;3.85;;;;;;;-145.01;100.00;64805.59;4993305;28;20030;-61
2021/08/08 04:47:30;;;;;;;7.85;3.92;;;;;;;-145.01;100.00;64805.59;4993438;28;20018;-61
2021/08/08 04:49:56;;;;;;;11.43;3.85;;;;;;;-145.01;100.00;64805.59;4993355;28;20058;-61
2021/08/08 04:52:21;;;;;;;10.77;4.43;;;;;;;-145.01;100.00;64805.59;4993035;28;20101;-61
2021/08/08 04:54:46;;;;;;;11.95;3.85;;;;;;;-145.01;100.00;64805.59;4993334;28;20026;-61
2021/08/08 04:57:12;;;;;;;11.70;4.45;;;;;;;-145.01;100.00;64805.59;4992866;28;20042;-61
2021/08/08 04:59:37;;;;;;;7.63;3.80;;;;;;;-145.01;100.00;64805.59;4993510;28;20033;-61
2021/08/08 05:02:03;;;;;;;14.82;4.80;;;;;;;-145.01;100.00;64805.59;4992986;28;20047;-61
2021/08/08 05:04:28;;;;;;;11.77;4.20;;;;;;;-145.01;100.00;64805.59;4993466;28;20026;-61
2021/08/08 05:06:54;;;;;;;13.80;4.43;;;;;;;-145.01;100.00;64805.59;4992994;28;20045;-61
2021/08/08 05:09:19;;;;;;;17.70;4.10;;;;;;;-145.01;100.00;64805.59;4993039;28;20049;-61
2021/08/08 05:11:45;;;;;;;10.50;4.13;;;;;;;-145.01;100.00;64805.59;4992716;28;20046;-61
2021/08/08 05:14:11;;;;;;;14.05;4.88;;;;;;;-145.01;100.00;64805.59;4993400;28;20359;-61
2021/08/08 05:16:37;;;;;;;6.40;3.65;;;;;;;-145.01;100.00;64805.59;4992867;28;20080;-61
2021/08/08 05:19:02;;;;;;;14.82;3.90;;;;;;;-145.01;100.00;64805.59;4993146;28;20105;-61
2021/08/08 05:21:28;;;;;;;13.57;4.35;;;;;;;-145.01;100.00;64805.59;4992748;28;20047;-61
2021/08/08 05:23:53;;;;;;;9.73;3.95;;;;;;;-145.01;100.00;64805.59;4992969;28;20101;-61
2021/08/08 05:26:18;;;;;;;12.90;4.45;;;;;;;-145.01;100.00;64805.59;4992667;28;20050;-60
2021/08/08 05:28:44;;;;;;;11.10;4.00;;;;;;;-145.01;100.00;64805.59;4993213;28;20027;-61
2021/08/08 05:31:10;;;;;;;8.68;3.97;;;;;;;-145.01;100.00;64805.59;4992556;28;20030;-61
2021/08/08 05:33:35;;;;;;;17.17;4.75;;;;;;;-145.01;100.00;64805.59;4992671;28;20109;-61
2021/08/08 05:36:01;;;;;;;16.92;4.57;;;;;;;-145.01;100.00;64805.59;4992640;28;20034;-61
2021/08/08 05:38:26;;;;;;;13.45;4.70;;;;;;;-145.01;100.00;64805.59;4992970;28;20030;-61
2021/08/08 05:40:51;;;;;;;13.38;4.28;;;;;;;-145.01;100.00;64805.59;4991317;28;20038;-61
2021/08/08 05:43:18;;;;;;;11.55;4.45;;;;;;;-145.01;100.00;64805.59;4991916;28;20101;-61
2021/08/08 05:45:47;;;;;;;15.35;3.97;;;;;;;-145.01;100.00;64805.59;4994014;28;20543;-61
2021/08/08 05:48:13;;;;;;;10.60;4.25;;;;;;;-145.01;100.00;64805.59;4996354;28;20026;-61
2021/08/08 05:50:39;;;;;;;9.43;3.60;;;;;;;-145.01;100.00;64805.59;4995870;28;20034;-61
2021/08/08 05:53:04;;;;;;;20.17;4.28;;;;;;;-145.01;100.00;64805.59;4996389;28;20080;-61
2021/08/08 05:55:30;;;;;;;15.40;4.25;;;;;;;-145.01;100.00;64805.59;4994625;28;20034;-61
2021/08/08 05:57:55;;;;;;;14.38;4.82;;;;;;;-145.01;100.00;64805.59;4996171;28;20034;-61
2021/08/08 06:00:21;;;;;;;20.10;5.03;;;;;;;-145.01;100.00;64805.59;4996055;28;20046;-61
2021/08/08 06:02:46;;;;;;;13.25;4.30;;;;;;;-145.01;100.00;64805.59;4996223;28;20488;-61
2021/08/08 06:05:11;;;;;;;9.82;3.90;;;;;;;-145.01;100.00;64805.59;4995772;28;20041;-59
2021/08/08 06:07:37;;;;;;;19.48;4.93;;;;;;;-145.01;100.00;64805.59;4995900;28;20042;-60
2021/08/08 06:10:03;;;;;;;11.05;4.00;;;;;;;-145.01;100.00;64805.59;4994344;28;20033;-61
2021/08/08 06:12:28;;;;;;;15.05;4.25;;;;;;;-145.01;100.00;64805.59;4994998;28;20026;-60
2021/08/08 06:14:54;;;;;;;10.30;3.17;;;;;;;-145.01;100.00;64805.59;4995910;28;20401;-60
2021/08/08 06:17:19;;;;;;;9.38;3.40;;;;;;;-145.01;100.00;64805.59;4995441;28;20046;-60
2021/08/08 06:19:45;;;;;;;17.85;3.65;;;;;;;-145.01;100.00;64805.59;4995912;28;20026;-60
2021/08/08 06:22:13;;;;;;;9.05;3.50;;;;;;;-145.01;100.00;64805.59;4995415;28;20042;-61
2021/08/08 06:24:39;;;;;;;13.48;3.40;;;;;;;-145.01;100.00;64805.59;4995647;28;20050;-60
2021/08/08 06:27:04;;;;;;;7.90;2.95;;;;;;;-145.01;100.00;64805.59;4995247;28;20404;-61
2021/08/08 06:29:30;;;;;;;15.30;2.80;;;;;;;-145.01;100.00;64805.59;4995857;28;20053;-61
2021/08/08 06:31:55;;;;;;;8.50;2.63;;;;;;;-145.01;100.00;64805.59;4995174;28;20090;-60
2021/08/08 06:34:20;;;;;;;8.93;2.75;;;;;;;-145.01;100.00;64805.59;4994417;28;20096;-61
2021/08/08 06:36:46;;;;;;;8.88;2.33;;;;;;;-145.01;100.00;64805.59;4995097;28;20504;-60
2021/08/08 06:39:12;;;;;;;7.47;2.33;;;;;;;-145.01;100.00;64805.59;4995477;28;20031;-60
2021/08/08 06:41:37;;;;;;;10.30;2.30;;;;;;;-145.01;100.00;64805.59;4995302;28;20053;-61
2021/08/08 06:44:03;;;;;;;11.15;2.30;;;;;;;-145.01;100.00;64805.59;4995459;28;20034;-60
2021/08/08 06:46:28;;;;;;;14.48;2.72;;;;;;;-145.01;100.00;64805.59;4994923;28;20035;-61
2021/08/08 06:48:53;;;;;;;11.52;2.78;;;;;;;-145.01;100.00;64805.59;4995221;28;20409;-60
2021/08/08 06:51:19;;;;;;;10.32;2.80;;;;;;;-145.01;100.00;64805.59;4994860;28;20046;-60
2021/08/08 06:53:44;;;;;;;13.25;2.90;;;;;;;-145.01;100.00;64805.59;4995170;28;20022;-60
2021/08/08 06:56:10;;;;;;;11.32;2.70;;;;;;;-145.01;100.00;64805.59;4994239;28;20473;-60
2021/08/08 06:58:35;;;;;;;8.45;3.05;;;;;;;-145.01;100.00;64805.59;4994988;28;20465;-60
2021/08/08 07:01:00;;;;;;;11.82;3.60;;;;;;;-145.01;100.00;64805.59;4994501;28;20054;-60
2021/08/08 07:03:26;;;;;;;13.68;3.13;;;;;;;-145.01;100.00;64805.59;4994958;28;20038;-59
2021/08/08 07:05:51;;;;;;;9.88;3.13;;;;;;;-145.01;100.00;64805.59;4994508;28;20079;-60
2021/08/08 07:08:17;;;;;;;14.73;2.70;;;;;;;-145.01;100.00;64805.59;4994539;28;20057;-59
2021/08/08 07:10:42;;;;;;;7.03;3.05;;;;;;;-145.01;100.00;64805.59;4994662;28;20042;-60
2021/08/08 07:13:08;;;;;;;13.05;3.13;;;;;;;-145.01;100.00;64805.59;4994777;28;20461;-59
2021/08/08 07:15:33;;;;;;;9.85;3.28;;;;;;;-145.01;100.00;64805.59;4994547;28;20038;-59
2021/08/08 07:17:59;;;;;;;11.82;3.08;;;;;;;-145.01;100.00;64805.59;4994770;28;20057;-59
2021/08/08 07:20:24;;;;;;;13.32;3.40;;;;;;;-145.01;100.00;64805.59;4994274;28;20504;-59
2021/08/08 07:22:50;;;;;;;7.68;2.50;;;;;;;-145.01;100.00;64805.59;4993354;28;20048;-59
2021/08/08 07:25:15;;;;;;;9.55;3.00;;;;;;;-145.01;100.00;64805.59;4993287;28;20073;-60
2021/08/08 07:27:40;;;;;;;9.95;2.67;;;;;;;-145.01;100.00;64805.59;4987722;28;20077;-60
2021/08/08 07:30:06;;;;;;;13.32;3.08;;;;;;;-145.01;100.00;64805.59;4991278;28;20377;-59
2021/08/08 07:32:31;;;;;;;11.77;3.47;;;;;;;-145.01;100.00;64805.59;4994267;28;20021;-60
2021/08/08 07:34:57;;;;;;;9.38;2.60;;;;;;;-145.01;100.00;64805.59;4994495;28;20429;-60
2021/08/08 07:37:23;;;;;;;8.63;2.50;;;;;;;-145.01;100.00;64805.59;4993883;28;20031;-60
2021/08/08 07:39:48;;;;;;;15.95;2.88;;;;;;;-145.01;100.00;64805.59;4994369;28;20022;-60
2021/08/08 07:42:14;;;;;;;8.38;2.30;;;;;;;-145.01;100.00;64805.59;4976627;28;20537;-60
2021/08/08 07:44:39;;;;;;;10.75;2.42;;;;;;;-145.01;100.00;64805.59;4994457;28;20035;-59
2021/08/08 07:47:05;;;;;;;10.98;2.65;;;;;;;-145.01;100.00;64805.59;4993852;28;20236;-59
2021/08/08 07:49:30;;;;;;;9.05;2.85;;;;;;;-145.01;100.00;64805.59;4994159;28;20042;-59
2021/08/08 07:51:56;;;;;;;13.65;2.88;;;;;;;-145.01;100.00;64805.59;4992539;28;20074;-59
2021/08/08 07:54:21;;;;;;;7.53;3.05;;;;;;;-145.01;100.00;64805.59;4994087;28;20461;-60
2021/08/08 07:56:47;;;;;;;13.13;3.22;;;;;;;-145.01;100.00;64805.59;4993723;28;20038;-60
2021/08/08 07:59:13;;;;;;;6.65;2.83;;;;;;;-145.01;100.00;64805.59;4994028;28;20030;-60
2021/08/08 08:01:38;;;;;;;7.35;2.90;;;;;;;-145.01;100.00;64805.59;4993323;28;20428;-59
2021/08/08 08:04:04;;;;;;;11.18;3.00;;;;;;;-145.01;100.00;64805.59;4993888;28;20026;-59
2021/08/08 08:06:29;;;;;;;9.02;3.08;;;;;;;-145.01;100.00;64805.59;4992211;28;20489;-60
2021/08/08 08:08:55;;;;;;;10.88;2.60;;;;;;;-145.01;100.00;64805.59;4992972;28;20100;-59
2021/08/08 08:11:20;;;;;;;12.80;2.45;;;;;;;-145.01;100.00;64805.59;4993405;28;20086;-59
2021/08/08 08:13:46;;;;;;;10.38;2.83;;;;;;;-145.01;100.00;64805.59;4992633;28;20035;-59
2021/08/08 08:16:11;;;;;;;8.02;2.63;;;;;;;-145.01;100.00;64805.59;4992093;28;20042;-59
2021/08/08 08:18:36;;;;;;;7.07;2.53;;;;;;;-145.01;100.00;64805.59;4992431;28;20026;-59
2021/08/08 08:21:02;;;;;;;9.63;2.58;;;;;;;-145.01;100.00;64805.59;4993213;28;20045;-59
2021/08/08 08:23:27;;;;;;;7.22;2.33;;;;;;;-145.01;100.00;64805.59;4993613;28;20030;-59
2021/08/08 08:25:53;;;;;;;8.20;2.38;;;;;;;-145.01;100.00;64805.59;4993010;28;20038;-59
2021/08/08 08:28:18;;;;;;;16.42;2.90;;;;;;;-145.01;100.00;64805.59;4993707;28;20026;-59
2021/08/08 08:30:44;;;;;;;9.73;2.55;;;;;;;-145.01;100.00;64805.59;4991940;28;20042;-59
2021/08/08 08:33:09;;;;;;;12.23;2.80;;;;;;;-145.01;100.00;64805.59;4993585;28;20027;-59
2021/08/08 08:35:35;;;;;;;10.93;3.08;;;;;;;-145.01;100.00;64805.59;4991635;28;20034;-59
2021/08/08 08:38:00;;;;;;;8.02;2.88;;;;;;;-145.01;100.00;64805.59;4993406;28;20457;-59
2021/08/08 08:40:26;;;;;;;8.95;2.70;;;;;;;-145.01;100.00;64805.59;4993240;28;20089;-59
2021/08/08 08:42:52;;;;;;;8.75;2.58;;;;;;;-145.01;100.00;64805.59;4992395;28;20022;-59
2021/08/08 08:45:18;;;;;;;10.18;2.70;;;;;;;-145.01;100.00;64805.59;4975718;28;20405;-59
2021/08/08 08:47:44;;;;;;;10.63;2.50;;;;;;;-145.01;100.00;64805.59;4993267;28;20034;-59
2021/08/08 08:50:10;;;;;;;9.05;2.67;;;;;;;-145.01;100.00;64805.59;4991493;28;20026;-59
2021/08/08 08:52:36;;;;;;;13.15;2.88;;;;;;;-145.01;100.00;64805.59;4992090;28;20113;-59
2021/08/08 08:55:02;;;;;;;6.32;2.63;;;;;;;-145.01;100.00;64805.59;4993111;28;20030;-59
2021/08/08 08:57:28;;;;;;;11.02;2.85;;;;;;;-145.01;100.00;64805.59;4993388;28;20030;-59
2021/08/08 08:59:53;;;;;;;7.78;2.60;;;;;;;-145.01;100.00;64805.59;4993321;28;20089;-59
2021/08/08 09:02:19;;;;;;;10.88;2.42;;;;;;;-145.01;100.00;64805.59;4991590;28;20073;-59
2021/08/08 09:04:44;;;;;;;9.95;2.70;;;;;;;-145.01;100.00;64805.59;4993268;28;20452;-59
2021/08/08 09:07:10;;;;;;;8.77;2.58;;;;;;;-145.01;100.00;64805.59;4992775;28;20481;-60
2021/08/08 09:09:36;;;;;;;10.18;2.42;;;;;;;-145.01;100.00;64805.59;4993249;28;20038;-59
2021/08/08 09:12:02;;;;;;;8.70;2.90;;;;;;;-145.01;100.00;64805.59;4992731;28;20046;-59
2021/08/08 09:14:27;;;;;;;7.10;2.20;;;;;;;-145.01;100.00;64805.59;4993126;28;20026;-59
2021/08/08 09:16:54;;;;;;;8.50;2.42;;;;;;;-145.01;100.00;64805.59;4992686;28;20030;-59
2021/08/08 09:19:24;;;;;;;8.75;2.50;;;;;;;-145.01;100.00;64805.59;4994186;28;20041;-59
2021/08/08 09:21:49;;;;;;;13.07;2.63;;;;;;;-145.01;100.00;64805.59;4996402;28;20092;-59
2021/08/08 09:24:35;;;;;;;9.20;2.60;;;;;;;-145.01;100.00;64805.59;4996897;28;20030;-59
2021/08/08 09:27:01;;;;;;;7.65;2.28;;;;;;;-145.01;100.00;64805.59;4996215;28;20038;-59
2021/08/08 09:29:27;;;;;;;6.88;3.08;;;;;;;-145.01;100.00;64805.59;4996209;28;20104;-59
2021/08/08 09:31:52;;;;;;;12.77;2.60;;;;;;;-145.01;100.00;64805.59;4996152;28;20440;-59
2021/08/08 09:34:31;;;;;;;9.82;2.60;;;;;;;-145.01;100.00;64805.59;4996639;28;20025;-59
2021/08/08 09:37:04;;;;;;;9.27;2.50;;;;;;;-145.01;100.00;64805.59;4996041;28;20038;-58
2021/08/08 09:39:35;;;;;;;11.13;2.45;;;;;;;-145.01;100.00;64805.59;4996685;28;20392;-59
2021/08/08 09:42:11;;;;;;;8.50;2.50;;;;;;;-145.01;100.00;64805.59;4996030;28;20043;-59
2021/08/08 09:44:36;;;;;;;9.98;2.63;;;;;;;-145.01;100.00;64805.59;4996387;28;20034;-59
2021/08/08 09:47:02;;;;;;;8.80;2.60;;;;;;;-145.01;100.00;64805.59;4996016;28;20477;-59
2021/08/08 09:49:28;;;;;;;9.48;3.00;;;;;;;-145.01;100.00;64805.59;4996294;28;20031;-59
2021/08/08 09:51:53;;;;;;;5.22;2.20;;;;;;;-145.01;100.00;64805.59;4995801;28;20039;-59
2021/08/08 09:54:19;;;;;;;10.73;2.50;;;;;;;-145.01;100.00;64805.59;4996262;28;20049;-59
2021/08/08 09:56:45;;;;;;;16.55;2.72;;;;;;;-145.01;100.00;64805.59;4994523;28;20050;-59
2021/08/08 09:59:10;;;;;;;7.28;2.58;;;;;;;-145.01;100.00;64805.59;4994627;28;20025;-60
2021/08/08 10:01:39;;;;;;;9.75;2.70;;;;;;;-145.01;100.00;64805.59;4995636;28;20055;-59
2021/08/08 10:04:05;;;;;;;8.15;2.35;;;;;;;-145.01;100.00;64805.59;4995938;28;20484;-59
2021/08/08 10:06:31;;;;;;;5.93;2.10;;;;;;;-145.01;100.00;64805.59;4995655;28;20046;-59
2021/08/08 10:08:56;;;;;;;10.52;2.80;;;;;;;-145.01;100.00;64805.59;4994476;28;20038;-59
2021/08/08 10:11:22;;;;;;;7.60;2.30;;;;;;;-145.01;100.00;64805.59;4977968;28;20069;-59
2021/08/08 10:13:57;;;;;;;12.27;2.85;;;;;;;-145.01;100.00;64805.59;4978329;28;20496;-59
2021/08/08 10:16:23;;;;;;;14.60;2.58;;;;;;;-145.01;100.00;64805.59;4995454;28;20390;-59
2021/08/08 10:18:55;;;;;;;10.88;2.90;;;;;;;-145.01;100.00;64805.59;4994640;28;20034;-59
2021/08/08 10:21:20;;;;;;;8.63;2.47;;;;;;;-145.01;100.00;64805.59;4995473;28;20046;-61
2021/08/08 10:23:50;;;;;;;9.00;2.63;;;;;;;-145.01;100.00;64805.59;4994500;28;20026;-61
2021/08/08 10:26:15;;;;;;;9.00;2.27;;;;;;;-145.01;100.00;64805.59;4977788;28;20041;-60
2021/08/08 10:28:41;;;;;;;12.95;2.88;;;;;;;-145.01;100.00;64805.59;4995662;28;20018;-60
2021/08/08 10:31:06;;;;;;;8.27;2.60;;;;;;;-145.01;100.00;64805.59;4994072;28;20413;-61
2021/08/08 10:33:53;;;;;;;7.82;2.47;;;;;;;-145.01;100.00;64805.59;4995549;28;20114;-60
2021/08/08 10:36:29;;;;;;;6.63;2.33;;;;;;;-145.01;100.00;64805.59;4994878;28;20046;-61
2021/08/08 10:39:11;;;;;;;11.35;3.15;;;;;;;-145.01;100.00;64805.59;4995382;28;20411;-60
2021/08/08 10:41:37;;;;;;;14.43;2.80;;;;;;;-145.01;100.00;64805.59;4994817;28;20065;-60
2021/08/08 10:44:15;;;;;;;14.60;2.83;;;;;;;-145.01;100.00;64805.59;4995361;28;20053;-59
2021/08/08 10:46:45;;;;;;;9.73;2.97;;;;;;;-145.01;100.00;64805.59;4994626;28;20042;-60
2021/08/08 10:49:10;;;;;;;10.88;2.75;;;;;;;-145.01;100.00;64805.59;4994965;28;20026;-58
2021/08/08 10:51:35;;;;;;;5.63;2.28;;;;;;;-145.01;100.00;64805.59;4993502;28;20039;-58
2021/08/08 10:54:08;;;;;;;8.90;2.45;;;;;;;-145.01;100.00;64805.59;4995133;28;20055;-59
2021/08/08 10:56:39;;;;;;;12.05;2.70;;;;;;;-145.01;100.00;64805.59;4994399;28;20088;-59
2021/08/08 10:59:13;;;;;;;8.90;2.50;;;;;;;-145.01;100.00;64805.59;4994780;28;20037;-59